createdAt,value
2023-04-22T00:00:53.686Z,95.45
2023-04-22T00:03:10.932Z,95.25
2023-04-22T00:05:28.048Z,95.34
2023-04-22T00:07:45.427Z,95.57
2023-04-22T00:10:02.484Z,94.51
2023-04-22T00:12:19.828Z,95.50
2023-04-22T00:14:37.157Z,94.17
2023-04-22T00:16:54.139Z,94.73
2023-04-22T00:19:14.115Z,94.74
2023-04-22T00:21:31.632Z,95.69
2023-04-22T00:23:48.903Z,94.25
2023-04-22T00:26:06.103Z,94.65
2023-04-22T00:28:23.169Z,94.89
2023-04-22T00:30:40.201Z,94.71
2023-04-22T00:32:57.416Z,96.36
2023-04-22T00:35:14.690Z,94.94
2023-04-22T00:37:31.771Z,95.19
2023-04-22T00:39:49.072Z,96.56
2023-04-22T00:42:06.401Z,95.25
2023-04-22T00:44:23.393Z,94.53
2023-04-22T00:46:40.315Z,95.25
2023-04-22T00:48:57.301Z,95.80
2023-04-22T00:51:14.417Z,94.56
2023-04-22T00:53:31.365Z,96.08
2023-04-22T00:55:48.492Z,95.85
2023-04-22T00:58:05.857Z,95.31
2023-04-22T01:00:23.878Z,95.74
2023-04-22T01:02:41.114Z,95.12
2023-04-22T01:04:58.476Z,96.14
2023-04-22T01:07:15.850Z,95.54
2023-04-22T01:09:32.867Z,94.09
2023-04-22T01:11:50.171Z,94.45
2023-04-22T01:14:07.214Z,95.15
2023-04-22T01:16:24.301Z,94.38
2023-04-22T01:18:41.205Z,94.46
2023-04-22T01:20:58.132Z,93.60
2023-04-22T01:23:15.233Z,94.95
2023-04-22T01:25:32.564Z,94.21
2023-04-22T01:27:50.530Z,93.30
2023-04-22T01:30:07.458Z,94.47
2023-04-22T01:32:24.587Z,94.21
2023-04-22T01:34:41.661Z,94.06
2023-04-22T01:36:58.708Z,94.33
2023-04-22T01:39:15.881Z,94.04
2023-04-22T01:41:35.348Z,94.80
2023-04-22T01:43:52.465Z,94.06
2023-04-22T01:46:09.770Z,95.57
2023-04-22T01:48:27.400Z,95.33
2023-04-22T01:50:45.153Z,95.43
2023-04-22T01:53:07.755Z,94.73
2023-04-22T01:55:24.944Z,92.67
2023-04-22T01:57:45.177Z,92.61
2023-04-22T02:00:02.523Z,93.08
2023-04-22T02:02:22.380Z,93.92
2023-04-22T02:04:39.750Z,94.10
2023-04-22T02:06:57.124Z,93.51
2023-04-22T02:09:14.370Z,94.27
2023-04-22T02:11:34.119Z,93.87
2023-04-22T02:13:51.303Z,95.11
2023-04-22T02:16:09.124Z,95.65
2023-04-22T02:18:26.349Z,95.20
2023-04-22T02:20:43.684Z,94.40
2023-04-22T02:23:01.685Z,95.75
2023-04-22T02:25:18.967Z,96.06
2023-04-22T02:27:36.015Z,95.66
2023-04-22T02:29:52.948Z,95.58
2023-04-22T02:32:09.848Z,94.58
2023-04-22T02:34:27.088Z,94.13
2023-04-22T02:36:45.389Z,94.55
2023-04-22T02:39:02.357Z,95.26
2023-04-22T02:41:20.266Z,94.54
2023-04-22T02:43:37.587Z,95.51
2023-04-22T02:45:54.533Z,94.92
2023-04-22T02:48:11.734Z,94.61
2023-04-22T02:50:28.784Z,95.16
2023-04-22T02:52:45.668Z,94.91
2023-04-22T02:55:02.623Z,94.44
2023-04-22T02:57:19.959Z,94.94
2023-04-22T02:59:37.812Z,95.57
2023-04-22T03:01:55.397Z,95.72
2023-04-22T03:04:12.511Z,95.73
2023-04-22T03:06:29.829Z,95.86
2023-04-22T03:08:47.888Z,95.86
2023-04-22T03:11:05.221Z,95.35
2023-04-22T03:13:22.171Z,95.62
2023-04-22T03:15:39.531Z,95.01
2023-04-22T03:17:56.586Z,95.79
2023-04-22T03:20:13.644Z,94.73
2023-04-22T03:22:30.884Z,95.81
2023-04-22T03:24:48.177Z,94.76
2023-04-22T03:27:05.468Z,94.08
2023-04-22T03:29:22.739Z,94.67
2023-04-22T03:31:39.748Z,94.51
2023-04-22T03:33:57.062Z,94.85
2023-04-22T03:36:14.082Z,94.02
2023-04-22T03:38:30.962Z,94.59
2023-04-22T03:40:47.967Z,93.97
2023-04-22T03:43:04.893Z,92.91
2023-04-22T03:45:22.215Z,94.25
2023-04-22T03:47:39.509Z,94.79
2023-04-22T03:49:56.501Z,94.76
2023-04-22T03:52:13.814Z,94.72
2023-04-22T03:54:31.778Z,95.68
2023-04-22T03:56:48.770Z,95.31
2023-04-22T03:59:06.005Z,94.95
2023-04-22T04:01:22.937Z,94.63
2023-04-22T04:03:40.208Z,95.69
2023-04-22T04:05:58.435Z,95.06
2023-04-22T04:08:15.797Z,95.12
2023-04-22T04:10:32.783Z,95.10
2023-04-22T04:12:49.757Z,95.83
2023-04-22T04:15:06.661Z,95.43
2023-04-22T04:17:23.544Z,96.23
2023-04-22T04:19:41.219Z,96.83
2023-04-22T04:21:58.557Z,95.71
2023-04-22T04:24:15.594Z,95.53
2023-04-22T04:26:32.651Z,96.24
2023-04-22T04:28:49.703Z,96.46
2023-04-22T04:31:06.769Z,95.90
2023-04-22T04:33:24.156Z,96.72
2023-04-22T04:35:41.163Z,96.96
2023-04-22T04:37:58.590Z,96.45
2023-04-22T04:40:15.639Z,96.33
2023-04-22T04:42:32.603Z,96.41
2023-04-22T04:44:49.901Z,96.55
2023-04-22T04:47:06.916Z,97.08
2023-04-22T04:49:24.160Z,96.51
2023-04-22T04:51:41.108Z,97.19
2023-04-22T04:53:58.350Z,97.14
2023-04-22T04:56:15.402Z,96.96
2023-04-22T04:58:32.429Z,96.73
2023-04-22T05:00:49.371Z,97.38
2023-04-22T05:03:07.449Z,96.73
2023-04-22T05:05:24.787Z,97.13
2023-04-22T05:07:43.016Z,97.43
2023-04-22T05:10:00.301Z,96.98
2023-04-22T05:12:17.287Z,96.78
2023-04-22T05:14:34.295Z,97.26
2023-04-22T05:16:51.667Z,97.12
2023-04-22T05:19:08.752Z,96.33
2023-04-22T05:21:25.697Z,96.38
2023-04-22T05:23:43.021Z,95.50
2023-04-22T05:26:00.070Z,95.71
2023-04-22T05:28:17.133Z,96.31
2023-04-22T05:30:34.540Z,95.52
2023-04-22T05:32:51.533Z,95.50
2023-04-22T05:35:08.807Z,96.02
2023-04-22T05:37:25.733Z,96.48
2023-04-22T05:39:42.700Z,95.78
2023-04-22T05:41:59.852Z,96.82
2023-04-22T05:44:16.803Z,96.03
2023-04-22T05:46:33.798Z,95.17
2023-04-22T05:48:51.061Z,94.64
2023-04-22T05:51:08.407Z,95.17
2023-04-22T05:53:25.413Z,95.85
2023-04-22T05:55:42.789Z,95.90
2023-04-22T05:57:59.725Z,96.04
2023-04-22T06:00:16.645Z,94.80
2023-04-22T06:02:33.738Z,96.13
2023-04-22T06:04:51.037Z,96.64
2023-04-22T06:07:09.294Z,96.32
2023-04-22T06:09:26.230Z,97.03
2023-04-22T06:11:43.481Z,95.41
2023-04-22T06:14:00.475Z,96.42
2023-04-22T06:16:17.683Z,95.03
2023-04-22T06:18:35.956Z,94.91
2023-04-22T06:20:53.610Z,93.92
2023-04-22T06:23:10.672Z,92.08
2023-04-22T06:25:27.710Z,93.55
2023-04-22T06:27:45.156Z,92.36
2023-04-22T06:30:03.285Z,93.84
2023-04-22T06:32:20.496Z,93.76
2023-04-22T06:34:37.531Z,92.34
2023-04-22T06:36:54.560Z,92.67
2023-04-22T06:39:11.609Z,92.30
2023-04-22T06:41:28.866Z,93.15
2023-04-22T06:43:45.975Z,92.10
2023-04-22T06:46:03.295Z,91.57
2023-04-22T06:48:20.505Z,91.36
2023-04-22T06:50:37.778Z,91.74
2023-04-22T06:52:55.808Z,91.03
2023-04-22T06:55:13.096Z,90.12
2023-04-22T06:57:31.058Z,91.08
2023-04-22T06:59:48.269Z,90.02
2023-04-22T07:02:05.237Z,89.88
2023-04-22T07:04:22.601Z,88.58
2023-04-22T07:06:39.918Z,87.67
2023-04-22T07:08:56.913Z,87.37
2023-04-22T07:11:14.451Z,88.24
2023-04-22T07:13:31.939Z,88.04
2023-04-22T07:15:49.195Z,88.21
2023-04-22T07:18:06.210Z,89.59
2023-04-22T07:20:23.152Z,88.71
2023-04-22T07:22:40.509Z,87.27
2023-04-22T07:24:57.697Z,87.48
2023-04-22T07:27:15.611Z,87.64
2023-04-22T07:29:32.900Z,87.39
2023-04-22T07:31:49.997Z,85.67
2023-04-22T07:34:07.087Z,85.08
2023-04-22T07:36:24.408Z,85.51
2023-04-22T07:38:41.642Z,86.41
2023-04-22T07:40:58.974Z,85.07
2023-04-22T07:43:16.831Z,84.21
2023-04-22T07:45:35.033Z,84.58
2023-04-22T07:47:52.411Z,84.10
2023-04-22T07:50:09.366Z,83.33
2023-04-22T07:52:26.603Z,83.95
2023-04-22T07:54:43.537Z,80.90
2023-04-22T07:57:00.799Z,84.30
2023-04-22T07:59:17.872Z,83.17
2023-04-22T08:01:35.915Z,81.81
2023-04-22T08:03:53.339Z,79.31
2023-04-22T08:06:10.617Z,79.62
2023-04-22T08:08:27.669Z,78.18
2023-04-22T08:10:45.639Z,78.04
2023-04-22T08:13:02.890Z,78.41
2023-04-22T08:15:19.854Z,76.80
2023-04-22T08:17:36.954Z,76.23
2023-04-22T08:19:53.971Z,75.72
2023-04-22T08:22:10.964Z,74.34
2023-04-22T08:24:27.987Z,74.23
2023-04-22T08:26:44.882Z,74.24
2023-04-22T08:29:01.877Z,73.63
2023-04-22T08:31:19.099Z,73.83
2023-04-22T08:33:36.113Z,73.11
2023-04-22T08:35:53.066Z,72.73
2023-04-22T08:38:10.116Z,72.45
2023-04-22T08:40:27.141Z,71.01
2023-04-22T08:42:44.133Z,69.76
2023-04-22T08:45:01.206Z,69.49
2023-04-22T08:47:18.208Z,69.66
2023-04-22T08:49:35.281Z,67.55
2023-04-22T08:51:53.289Z,67.16
2023-04-22T08:54:11.360Z,66.93
2023-04-22T08:56:28.563Z,64.63
2023-04-22T08:58:45.726Z,63.64
2023-04-22T09:01:02.761Z,61.78
2023-04-22T09:03:20.139Z,59.75
2023-04-22T09:05:37.155Z,59.33
2023-04-22T09:07:54.491Z,58.21
2023-04-22T09:10:11.780Z,56.26
2023-04-22T09:12:29.706Z,57.33
2023-04-22T09:14:46.672Z,54.50
2023-04-22T09:17:03.696Z,55.09
2023-04-22T09:19:20.907Z,57.58
2023-04-22T09:21:38.154Z,55.99
2023-04-22T09:23:55.124Z,55.40
2023-04-22T09:26:12.161Z,55.65
2023-04-22T09:28:29.212Z,55.42
2023-04-22T09:30:46.245Z,52.82
2023-04-22T09:33:03.362Z,52.30
2023-04-22T09:35:20.606Z,52.73
2023-04-22T09:37:46.588Z,50.23
2023-04-22T09:40:06.327Z,50.34
2023-04-22T09:42:23.302Z,48.76
2023-04-22T09:44:40.180Z,49.68
2023-04-22T09:46:57.168Z,49.62
2023-04-22T09:49:14.214Z,48.74
2023-04-22T09:51:31.219Z,48.50
2023-04-22T09:53:49.421Z,49.55
2023-04-22T09:56:06.723Z,48.68
2023-04-22T09:58:24.057Z,49.00
2023-04-22T10:00:41.169Z,46.26
2023-04-22T10:02:58.266Z,46.65
2023-04-22T10:05:15.638Z,43.39
2023-04-22T10:07:32.754Z,44.88
2023-04-22T10:09:49.810Z,46.04
2023-04-22T10:12:06.741Z,45.34
2023-04-22T10:14:23.718Z,45.14
2023-04-22T10:16:42.066Z,44.41
2023-04-22T10:18:59.347Z,45.81
2023-04-22T10:21:16.598Z,44.76
2023-04-22T10:23:33.638Z,44.00
2023-04-22T10:25:50.601Z,44.82
2023-04-22T10:28:07.901Z,43.92
2023-04-22T10:30:25.135Z,46.33
2023-04-22T10:32:42.173Z,45.26
2023-04-22T10:34:59.219Z,43.92
2023-04-22T10:37:16.224Z,43.14
2023-04-22T10:39:33.087Z,42.42
2023-04-22T10:41:50.012Z,43.31
2023-04-22T10:44:06.948Z,43.26
2023-04-22T10:46:23.880Z,44.26
2023-04-22T10:48:40.931Z,44.18
2023-04-22T10:50:57.946Z,44.54
2023-04-22T10:53:14.970Z,42.59
2023-04-22T10:55:32.052Z,42.39
2023-04-22T10:57:49.311Z,42.44
2023-04-22T11:00:06.587Z,45.20
2023-04-22T11:02:23.899Z,44.64
2023-04-22T11:04:40.919Z,46.58
2023-04-22T11:06:57.895Z,45.32
2023-04-22T11:09:15.159Z,44.50
2023-04-22T11:11:32.489Z,45.93
2023-04-22T11:13:49.536Z,44.99
2023-04-22T11:16:06.786Z,44.42
2023-04-22T11:18:23.671Z,45.14
2023-04-22T11:20:40.896Z,46.25
2023-04-22T11:22:57.899Z,45.70
2023-04-22T11:25:15.202Z,47.28
2023-04-22T11:27:32.456Z,47.49
2023-04-22T11:29:49.742Z,46.97
2023-04-22T11:32:07.050Z,48.35
2023-04-22T11:34:24.074Z,45.80
2023-04-22T11:36:41.071Z,46.86
2023-04-22T11:38:57.984Z,47.28
2023-04-22T11:41:14.969Z,48.33
2023-04-22T11:43:31.975Z,47.72
2023-04-22T11:45:49.280Z,49.35
2023-04-22T11:48:06.337Z,48.69
2023-04-22T11:50:23.557Z,47.77
2023-04-22T11:52:40.594Z,48.04
2023-04-22T11:54:57.668Z,48.02
2023-04-22T11:57:14.701Z,48.02
2023-04-22T11:59:32.921Z,47.70
2023-04-22T12:01:49.960Z,48.38
2023-04-22T12:04:07.079Z,49.47
2023-04-22T12:06:24.406Z,49.25
2023-04-22T12:08:41.338Z,49.61
2023-04-22T12:10:58.378Z,49.57
2023-04-22T12:13:15.268Z,48.91
2023-04-22T12:15:32.282Z,49.49
2023-04-22T12:17:50.205Z,50.40
2023-04-22T12:20:07.220Z,50.50
2023-04-22T12:22:24.282Z,51.85
2023-04-22T12:24:42.284Z,51.48
2023-04-22T12:26:59.535Z,50.98
2023-04-22T12:29:16.581Z,50.88
2023-04-22T12:31:34.054Z,49.96
2023-04-22T12:33:52.314Z,50.82
2023-04-22T12:36:09.324Z,51.38
2023-04-22T12:38:26.550Z,50.58
2023-04-22T12:40:43.555Z,51.55
2023-04-22T12:43:00.781Z,53.09
2023-04-22T12:45:17.727Z,52.26
2023-04-22T12:47:34.699Z,53.20
2023-04-22T12:49:51.987Z,52.09
2023-04-22T12:52:08.934Z,53.19
2023-04-22T12:54:27.111Z,53.15
2023-04-22T12:56:44.033Z,52.49
2023-04-22T12:59:00.917Z,53.46
2023-04-22T13:01:17.919Z,52.83
2023-04-22T13:03:35.143Z,52.48
2023-04-22T13:05:52.500Z,53.30
2023-04-22T13:08:09.766Z,53.75
2023-04-22T13:10:26.801Z,53.98
2023-04-22T13:12:43.981Z,53.69
2023-04-22T13:15:01.008Z,53.07
2023-04-22T13:17:18.258Z,53.15
2023-04-22T13:19:35.643Z,52.64
2023-04-22T13:21:52.708Z,53.95
2023-04-22T13:24:09.919Z,53.48
2023-04-22T13:26:26.954Z,53.60
2023-04-22T13:28:43.996Z,54.64
2023-04-22T13:31:00.916Z,54.50
2023-04-22T13:33:19.085Z,53.37
2023-04-22T13:35:36.132Z,53.43
2023-04-22T13:37:53.181Z,54.97
2023-04-22T13:40:10.089Z,54.71
2023-04-22T13:42:27.320Z,53.83
2023-04-22T13:44:44.243Z,53.58
2023-04-22T13:47:02.785Z,55.11
2023-04-22T13:49:20.062Z,55.54
2023-04-22T13:51:37.380Z,54.07
2023-04-22T13:53:54.340Z,53.31
2023-04-22T13:56:11.404Z,55.58
2023-04-22T13:58:28.461Z,53.63
2023-04-22T14:00:45.543Z,54.98
2023-04-22T14:03:02.680Z,54.04
2023-04-22T14:05:20.150Z,54.37
2023-04-22T14:07:37.215Z,54.12
2023-04-22T14:09:54.237Z,55.49
2023-04-22T14:12:11.276Z,55.40
2023-04-22T14:14:28.233Z,55.22
2023-04-22T14:16:45.543Z,55.06
2023-04-22T14:19:02.906Z,52.54
2023-04-22T14:21:19.790Z,53.54
2023-04-22T14:23:36.825Z,53.15
2023-04-22T14:25:53.910Z,53.79
2023-04-22T14:28:11.621Z,53.59
2023-04-22T14:30:28.677Z,54.53
2023-04-22T14:32:45.730Z,54.68
2023-04-22T14:35:02.647Z,54.35
2023-04-22T14:37:19.681Z,53.67
2023-04-22T14:39:36.716Z,53.82
2023-04-22T14:41:54.001Z,54.23
2023-04-22T14:44:10.968Z,55.11
2023-04-22T14:46:29.063Z,54.74
2023-04-22T14:48:46.117Z,55.29
2023-04-22T14:51:03.089Z,55.39
2023-04-22T14:53:20.387Z,54.40
2023-04-22T14:55:37.315Z,56.20
2023-04-22T14:57:54.215Z,56.32
2023-04-22T15:00:11.517Z,56.42
2023-04-22T15:02:28.655Z,55.71
2023-04-22T15:04:46.794Z,55.84
2023-04-22T15:07:04.476Z,55.14
2023-04-22T15:09:22.915Z,57.42
2023-04-22T15:11:41.160Z,57.46
2023-04-22T15:13:58.111Z,55.80
2023-04-22T15:16:15.413Z,58.31
2023-04-22T15:18:32.416Z,56.15
2023-04-22T15:20:49.678Z,57.01
2023-04-22T15:23:06.618Z,56.25
2023-04-22T15:25:23.680Z,56.25
2023-04-22T15:27:40.614Z,57.10
2023-04-22T15:29:57.852Z,55.39
2023-04-22T15:32:15.065Z,55.72
2023-04-22T15:34:32.052Z,55.26
2023-04-22T15:36:48.979Z,55.34
2023-04-22T15:39:06.954Z,57.34
2023-04-22T15:41:23.976Z,55.00
2023-04-22T15:43:40.897Z,55.56
2023-04-22T15:45:57.807Z,54.50
2023-04-22T15:48:14.837Z,55.20
2023-04-22T15:50:31.859Z,55.76
2023-04-22T15:52:48.866Z,56.30
2023-04-22T15:55:06.267Z,56.88
2023-04-22T15:57:24.195Z,56.43
2023-04-22T15:59:41.411Z,57.27
2023-04-22T16:01:58.739Z,55.95
2023-04-22T16:04:16.082Z,56.87
2023-04-22T16:06:33.514Z,55.44
2023-04-22T16:08:50.581Z,56.51
2023-04-22T16:11:07.591Z,57.73
2023-04-22T16:13:24.922Z,57.55
2023-04-22T16:15:41.777Z,55.54
2023-04-22T16:17:59.048Z,57.26
2023-04-22T16:20:17.373Z,57.62
2023-04-22T16:22:34.462Z,55.06
2023-04-22T16:24:51.496Z,56.20
2023-04-22T16:27:08.421Z,56.05
2023-04-22T16:29:25.673Z,56.00
2023-04-22T16:31:42.759Z,56.13
2023-04-22T16:33:59.805Z,56.60
2023-04-22T16:36:16.876Z,56.56
2023-04-22T16:38:33.845Z,57.72
2023-04-22T16:40:51.171Z,57.53
2023-04-22T16:43:08.050Z,57.66
2023-04-22T16:45:25.338Z,58.19
2023-04-22T16:47:42.345Z,60.66
2023-04-22T16:49:59.833Z,60.92
2023-04-22T16:52:17.010Z,60.09
2023-04-22T16:54:34.055Z,60.75
2023-04-22T16:56:51.040Z,60.82
2023-04-22T16:59:08.379Z,62.37
2023-04-22T17:01:25.450Z,62.15
2023-04-22T17:03:42.858Z,63.91
2023-04-22T17:05:59.985Z,65.09
2023-04-22T17:08:17.087Z,65.09
2023-04-22T17:10:35.120Z,65.29
2023-04-22T17:12:52.387Z,66.63
2023-04-22T17:15:09.389Z,66.95
2023-04-22T17:17:26.729Z,67.81
2023-04-22T17:19:44.838Z,68.47
2023-04-22T17:22:02.006Z,69.84
2023-04-22T17:24:21.158Z,71.34
2023-04-22T17:26:39.665Z,71.72
2023-04-22T17:28:57.554Z,73.20
2023-04-22T17:31:14.660Z,74.50
2023-04-22T17:33:31.910Z,75.48
2023-04-22T17:35:49.204Z,75.91
2023-04-22T17:38:06.297Z,76.15
2023-04-22T17:40:23.606Z,77.16
2023-04-22T17:42:45.899Z,77.36
2023-04-22T17:45:03.763Z,77.90
2023-04-22T17:47:21.054Z,77.56
2023-04-22T17:49:37.931Z,78.69
2023-04-22T17:51:54.867Z,79.96
2023-04-22T17:54:12.961Z,80.54
2023-04-22T17:56:30.178Z,79.89
2023-04-22T17:58:47.196Z,80.55
2023-04-22T18:01:04.168Z,81.74
2023-04-22T18:03:22.753Z,82.54
2023-04-22T18:05:39.876Z,82.99
2023-04-22T18:07:56.907Z,82.42
2023-04-22T18:10:13.971Z,83.51
2023-04-22T18:12:31.287Z,83.74
2023-04-22T18:14:48.521Z,83.22
2023-04-22T18:17:06.550Z,83.24
2023-04-22T18:19:23.595Z,84.90
2023-04-22T18:21:49.616Z,84.38
2023-04-22T18:24:15.429Z,85.09
2023-04-22T18:26:32.610Z,85.29
2023-04-22T18:28:49.661Z,83.16
2023-04-22T18:31:06.777Z,85.13
2023-04-22T18:33:25.070Z,83.83
2023-04-22T18:35:42.427Z,84.92
2023-04-22T18:38:00.719Z,85.77
2023-04-22T18:40:18.074Z,85.70
2023-04-22T18:42:35.402Z,85.86
2023-04-22T18:44:52.421Z,86.59
2023-04-22T18:47:09.670Z,85.05
2023-04-22T18:49:26.682Z,88.08
2023-04-22T18:51:43.700Z,88.45
2023-04-22T18:54:00.736Z,88.05
2023-04-22T18:56:17.819Z,87.43
2023-04-22T18:58:34.914Z,88.15
2023-04-22T19:00:52.993Z,87.87
2023-04-22T19:03:10.370Z,88.22
2023-04-22T19:05:27.410Z,88.29
2023-04-22T19:07:45.329Z,87.50
2023-04-22T19:10:02.494Z,86.33
2023-04-22T19:12:19.904Z,86.88
2023-04-22T19:14:36.948Z,87.23
2023-04-22T19:16:53.895Z,87.30
2023-04-22T19:19:11.200Z,88.11
2023-04-22T19:21:28.080Z,91.26
2023-04-22T19:23:45.131Z,91.92
2023-04-22T19:26:02.449Z,91.41
2023-04-22T19:28:19.770Z,90.97
2023-04-22T19:30:37.031Z,91.16
2023-04-22T19:32:54.071Z,90.97
2023-04-22T19:35:11.124Z,91.37
2023-04-22T19:37:28.424Z,90.71
2023-04-22T19:39:45.464Z,91.42
2023-04-22T19:42:02.494Z,89.07
2023-04-22T19:44:19.848Z,89.26
2023-04-22T19:46:37.017Z,87.89
2023-04-22T19:48:54.074Z,88.00
2023-04-22T19:51:11.330Z,87.42
2023-04-22T19:53:29.335Z,87.79
2023-04-22T19:55:46.592Z,88.32
2023-04-22T19:58:03.620Z,88.18
2023-04-22T20:00:21.948Z,89.13
2023-04-22T20:02:39.147Z,89.56
2023-04-22T20:04:56.234Z,90.44
2023-04-22T20:07:15.874Z,89.17
2023-04-22T20:09:32.919Z,88.52
2023-04-22T20:11:49.956Z,89.05
2023-04-22T20:14:07.016Z,89.51
2023-04-22T20:16:27.084Z,90.20
2023-04-22T20:18:44.154Z,90.58
2023-04-22T20:21:01.125Z,90.52
2023-04-22T20:23:18.143Z,87.93
2023-04-22T20:25:35.218Z,87.65
2023-04-22T20:27:52.170Z,88.45
2023-04-22T20:30:09.521Z,88.80
2023-04-22T20:32:27.634Z,89.69
2023-04-22T20:34:45.953Z,87.79
2023-04-22T20:37:03.274Z,88.78
2023-04-22T20:39:20.477Z,88.80
2023-04-22T20:41:37.525Z,88.36
2023-04-22T20:43:55.537Z,88.61
2023-04-22T20:46:13.853Z,90.00
2023-04-22T20:48:30.899Z,89.85
2023-04-22T20:50:48.256Z,88.54
2023-04-22T20:53:05.255Z,87.00
2023-04-22T20:55:22.519Z,87.74
2023-04-22T20:57:41.947Z,86.77
2023-04-22T20:59:58.878Z,85.93
2023-04-22T21:02:17.929Z,87.38
2023-04-22T21:04:35.352Z,84.45
2023-04-22T21:06:55.063Z,85.70
2023-04-22T21:09:12.080Z,86.13
2023-04-22T21:11:28.981Z,84.98
2023-04-22T21:13:46.054Z,86.34
2023-04-22T21:16:03.139Z,86.45
2023-04-22T21:18:21.516Z,86.52
2023-04-22T21:20:39.725Z,85.76
2023-04-22T21:22:57.976Z,86.59
2023-04-22T21:25:16.809Z,86.61
2023-04-22T21:27:34.047Z,86.38
2023-04-22T21:29:51.181Z,86.58
2023-04-22T21:32:09.819Z,86.41
2023-04-22T21:34:27.187Z,87.27
2023-04-22T21:36:44.101Z,85.29
2023-04-22T21:39:01.111Z,86.94
2023-04-22T21:41:18.164Z,85.82
2023-04-22T21:43:35.113Z,87.73
2023-04-22T21:45:52.469Z,86.15
2023-04-22T21:48:09.387Z,86.32
2023-04-22T21:50:26.268Z,87.48
2023-04-22T21:52:43.713Z,86.28
2023-04-22T21:55:00.631Z,85.81
2023-04-22T21:57:17.743Z,87.05
2023-04-22T21:59:35.047Z,87.21
2023-04-22T22:01:52.450Z,86.81
2023-04-22T22:04:09.701Z,87.37
2023-04-22T22:06:26.763Z,88.58
2023-04-22T22:08:45.018Z,87.56
2023-04-22T22:11:02.324Z,86.24
2023-04-22T22:13:19.314Z,85.98
2023-04-22T22:15:36.368Z,86.27
2023-04-22T22:17:53.454Z,85.97
2023-04-22T22:20:10.865Z,87.23
2023-04-22T22:22:27.802Z,85.97
2023-04-22T22:24:45.085Z,88.46
2023-04-22T22:27:02.184Z,86.72
2023-04-22T22:29:19.311Z,86.09
2023-04-22T22:31:36.332Z,87.17
2023-04-22T22:33:53.664Z,87.36
2023-04-22T22:36:10.712Z,86.72
2023-04-22T22:38:29.001Z,88.21
2023-04-22T22:40:46.828Z,86.50
2023-04-22T22:43:05.082Z,87.03
2023-04-22T22:45:21.940Z,88.45
2023-04-22T22:47:39.260Z,86.74
2023-04-22T22:49:56.545Z,89.29
2023-04-22T22:52:14.413Z,87.20
2023-04-22T22:54:31.446Z,87.93
2023-04-22T22:56:48.791Z,86.97
2023-04-22T22:59:06.127Z,87.26
2023-04-22T23:01:23.217Z,87.31
2023-04-22T23:03:40.513Z,87.36
2023-04-22T23:05:59.483Z,88.62
2023-04-22T23:08:16.397Z,87.07
2023-04-22T23:10:33.402Z,87.59
2023-04-22T23:12:50.436Z,87.92
2023-04-22T23:15:07.376Z,87.57
2023-04-22T23:17:24.412Z,87.19
2023-04-22T23:19:41.528Z,89.83
2023-04-22T23:21:58.838Z,90.97
2023-04-22T23:24:15.970Z,90.60
2023-04-22T23:26:34.218Z,91.08
2023-04-22T23:28:51.766Z,91.08
2023-04-22T23:31:09.104Z,90.48
2023-04-22T23:33:26.462Z,90.51
2023-04-22T23:35:43.431Z,90.38
2023-04-22T23:38:00.441Z,91.10
2023-04-22T23:40:17.724Z,90.32
2023-04-22T23:42:34.796Z,90.00
2023-04-22T23:44:51.736Z,91.06
2023-04-22T23:47:09.067Z,90.18
2023-04-22T23:49:26.026Z,91.03
2023-04-22T23:51:43.103Z,90.11
2023-04-22T23:54:00.120Z,91.28
2023-04-22T23:56:17.133Z,91.80
2023-04-22T23:58:35.094Z,91.83
